createdAt,value
2023-04-09T00:00:06.884Z,511.00
2023-04-09T00:01:06.870Z,510.00
2023-04-09T00:02:06.936Z,508.00
2023-04-09T00:03:06.988Z,509.00
2023-04-09T00:04:06.879Z,511.00
2023-04-09T00:05:06.884Z,509.00
2023-04-09T00:06:06.853Z,509.00
2023-04-09T00:07:06.840Z,508.00
2023-04-09T00:08:06.824Z,509.00
2023-04-09T00:09:06.815Z,515.00
2023-04-09T00:10:06.836Z,512.00
2023-04-09T00:11:06.833Z,512.00
2023-04-09T00:12:06.797Z,508.00
2023-04-09T00:13:06.772Z,514.00
2023-04-09T00:14:06.795Z,511.00
2023-04-09T00:15:08.384Z,504.00
2023-04-09T00:16:06.837Z,515.00
2023-04-09T00:17:06.764Z,511.00
2023-04-09T00:18:06.731Z,511.00
2023-04-09T00:19:06.729Z,511.00
2023-04-09T00:20:06.706Z,511.00
2023-04-09T00:21:06.713Z,513.00
2023-04-09T00:22:06.749Z,507.00
2023-04-09T00:23:06.696Z,510.00
2023-04-09T00:24:06.705Z,507.00
2023-04-09T00:25:06.720Z,512.00
2023-04-09T00:26:06.728Z,510.00
2023-04-09T00:27:06.670Z,512.00
2023-04-09T00:28:06.681Z,511.00
2023-04-09T00:29:06.653Z,513.00
2023-04-09T00:30:06.644Z,511.00
2023-04-09T00:31:06.695Z,511.00
2023-04-09T00:32:06.871Z,511.00
2023-04-09T00:33:06.831Z,514.00
2023-04-09T00:34:06.812Z,514.00
2023-04-09T00:35:06.895Z,514.00
2023-04-09T00:36:06.968Z,511.00
2023-04-09T00:37:06.977Z,513.00
2023-04-09T00:38:06.970Z,512.00
2023-04-09T00:39:07.036Z,514.00
2023-04-09T00:40:07.075Z,513.00
2023-04-09T00:41:07.173Z,515.00
2023-04-09T00:42:07.173Z,511.00
2023-04-09T00:43:07.218Z,512.00
2023-04-09T00:44:07.213Z,511.00
2023-04-09T00:45:07.295Z,512.00
2023-04-09T00:46:07.362Z,512.00
2023-04-09T00:47:07.395Z,508.00
2023-04-09T00:48:07.380Z,512.00
2023-04-09T00:49:07.440Z,511.00
2023-04-09T00:50:07.528Z,514.00
2023-04-09T00:51:07.561Z,509.00
2023-04-09T00:52:07.607Z,517.00
2023-04-09T00:53:07.653Z,512.00
2023-04-09T00:54:07.628Z,510.00
2023-04-09T00:55:07.664Z,513.00
2023-04-09T00:56:07.729Z,513.00
2023-04-09T00:57:07.866Z,511.00
2023-04-09T00:58:07.914Z,517.00
2023-04-09T00:59:07.809Z,511.00
2023-04-09T01:00:07.911Z,510.00
2023-04-09T01:01:07.900Z,511.00
2023-04-09T01:02:08.053Z,513.00
2023-04-09T01:03:08.066Z,513.00
2023-04-09T01:04:08.041Z,513.00
2023-04-09T01:05:08.047Z,513.00
2023-04-09T01:06:08.148Z,510.00
2023-04-09T01:07:08.135Z,515.00
2023-04-09T01:08:08.202Z,515.00
2023-04-09T01:09:08.244Z,511.00
2023-04-09T01:10:08.248Z,515.00
2023-04-09T01:11:08.292Z,513.00
2023-04-09T01:12:08.317Z,514.00
2023-04-09T01:13:08.388Z,515.00
2023-04-09T01:14:08.419Z,514.00
2023-04-09T01:15:08.499Z,509.00
2023-04-09T01:16:08.524Z,512.00
2023-04-09T01:17:08.560Z,513.00
2023-04-09T01:18:08.537Z,509.00
2023-04-09T01:19:08.634Z,508.00
2023-04-09T01:20:08.621Z,510.00
2023-04-09T01:21:08.692Z,511.00
2023-04-09T01:22:08.747Z,512.00
2023-04-09T01:23:08.749Z,517.00
2023-04-09T01:24:08.816Z,512.00
2023-04-09T01:25:08.847Z,512.00
2023-04-09T01:26:08.871Z,510.00
2023-04-09T01:27:08.960Z,511.00
2023-04-09T01:28:08.996Z,510.00
2023-04-09T01:29:08.989Z,514.00
2023-04-09T01:30:09.058Z,513.00
2023-04-09T01:31:09.203Z,508.00
2023-04-09T01:32:09.236Z,511.00
2023-04-09T01:33:09.187Z,515.00
2023-04-09T01:34:09.239Z,510.00
2023-04-09T01:35:09.246Z,513.00
2023-04-09T01:36:09.315Z,513.00
2023-04-09T01:37:09.359Z,511.00
2023-04-09T01:38:09.358Z,514.00
2023-04-09T01:39:09.427Z,511.00
2023-04-09T01:40:09.435Z,511.00
2023-04-09T01:41:09.473Z,514.00
2023-04-09T01:42:09.571Z,512.00
2023-04-09T01:43:09.608Z,512.00
2023-04-09T01:44:09.619Z,515.00
2023-04-09T01:45:09.653Z,517.00
2023-04-09T01:46:09.714Z,513.00
2023-04-09T01:47:09.684Z,510.00
2023-04-09T01:48:09.748Z,514.00
2023-04-09T01:49:09.782Z,513.00
2023-04-09T01:50:09.851Z,515.00
2023-04-09T01:51:09.866Z,513.00
2023-04-09T01:52:09.922Z,510.00
2023-04-09T01:53:09.925Z,514.00
2023-04-09T01:54:10.045Z,515.00
2023-04-09T01:55:10.014Z,514.00
2023-04-09T01:56:10.109Z,512.00
2023-04-09T01:57:10.163Z,515.00
2023-04-09T01:58:10.140Z,509.00
2023-04-09T01:59:10.225Z,512.00
2023-04-09T02:00:10.267Z,511.00
2023-04-09T02:01:10.314Z,511.00
2023-04-09T02:02:10.415Z,515.00
2023-04-09T02:03:10.447Z,514.00
2023-04-09T02:04:10.461Z,515.00
2023-04-09T02:05:10.464Z,513.00
2023-04-09T02:06:10.564Z,510.00
2023-04-09T02:07:10.686Z,514.00
2023-04-09T02:08:10.548Z,510.00
2023-04-09T02:09:10.651Z,512.00
2023-04-09T02:10:10.707Z,510.00
2023-04-09T02:11:10.709Z,514.00
2023-04-09T02:12:10.780Z,511.00
2023-04-09T02:13:10.836Z,518.00
2023-04-09T02:14:10.832Z,513.00
2023-04-09T02:15:10.871Z,512.00
2023-04-09T02:16:10.975Z,512.00
2023-04-09T02:17:10.986Z,514.00
2023-04-09T02:18:11.017Z,517.00
2023-04-09T02:19:11.034Z,515.00
2023-04-09T02:20:11.088Z,517.00
2023-04-09T02:21:11.139Z,514.00
2023-04-09T02:22:11.147Z,514.00
2023-04-09T02:23:11.267Z,513.00
2023-04-09T02:24:11.238Z,518.00
2023-04-09T02:25:11.318Z,516.00
2023-04-09T02:26:11.326Z,514.00
2023-04-09T02:27:11.382Z,521.00
2023-04-09T02:28:11.503Z,514.00
2023-04-09T02:29:11.503Z,512.00
2023-04-09T02:30:11.579Z,517.00
2023-04-09T02:31:11.609Z,516.00
2023-04-09T02:32:11.636Z,518.00
2023-04-09T02:33:11.678Z,511.00
2023-04-09T02:34:11.685Z,515.00
2023-04-09T02:35:11.757Z,515.00
2023-04-09T02:36:11.764Z,515.00
2023-04-09T02:37:11.862Z,515.00
2023-04-09T02:38:11.928Z,518.00
2023-04-09T02:39:11.928Z,513.00
2023-04-09T02:40:11.970Z,515.00
2023-04-09T02:41:12.004Z,515.00
2023-04-09T02:42:12.107Z,510.00
2023-04-09T02:43:12.157Z,515.00
2023-04-09T02:44:12.171Z,515.00
2023-04-09T02:45:12.296Z,513.00
2023-04-09T02:46:12.261Z,514.00
2023-04-09T02:47:12.346Z,512.00
2023-04-09T02:48:12.349Z,514.00
2023-04-09T02:49:12.412Z,512.00
2023-04-09T02:50:12.424Z,515.00
2023-04-09T02:51:12.421Z,516.00
2023-04-09T02:52:12.482Z,513.00
2023-04-09T02:53:12.481Z,511.00
2023-04-09T02:54:12.502Z,512.00
2023-04-09T02:55:12.556Z,515.00
2023-04-09T02:56:12.537Z,513.00
2023-04-09T02:57:12.620Z,516.00
2023-04-09T02:58:12.623Z,515.00
2023-04-09T02:59:12.652Z,514.00
2023-04-09T03:00:12.688Z,513.00
2023-04-09T03:01:12.709Z,513.00
2023-04-09T03:02:12.863Z,513.00
2023-04-09T03:03:12.935Z,511.00
2023-04-09T03:04:12.887Z,513.00
2023-04-09T03:05:12.884Z,511.00
2023-04-09T03:06:12.942Z,509.00
2023-04-09T03:07:12.997Z,514.00
2023-04-09T03:08:13.264Z,511.00
2023-04-09T03:09:13.061Z,519.00
2023-04-09T03:10:13.116Z,512.00
2023-04-09T03:11:13.178Z,515.00
2023-04-09T03:12:13.236Z,514.00
2023-04-09T03:13:13.297Z,516.00
2023-04-09T03:14:13.303Z,514.00
2023-04-09T03:15:13.314Z,516.00
2023-04-09T03:16:13.417Z,515.00
2023-04-09T03:17:13.341Z,511.00
2023-04-09T03:18:13.423Z,514.00
2023-04-09T03:19:13.428Z,515.00
2023-04-09T03:20:13.500Z,513.00
2023-04-09T03:21:15.048Z,514.00
2023-04-09T03:22:13.661Z,513.00
2023-04-09T03:23:13.677Z,516.00
2023-04-09T03:24:13.679Z,512.00
2023-04-09T03:25:13.810Z,518.00
2023-04-09T03:26:13.799Z,518.00
2023-04-09T03:27:13.906Z,513.00
2023-04-09T03:28:13.918Z,515.00
2023-04-09T03:29:13.971Z,517.00
2023-04-09T03:30:14.025Z,513.00
2023-04-09T03:31:14.204Z,514.00
2023-04-09T03:32:14.285Z,514.00
2023-04-09T03:33:14.189Z,513.00
2023-04-09T03:34:14.266Z,515.00
2023-04-09T03:35:14.313Z,513.00
2023-04-09T03:36:14.382Z,518.00
2023-04-09T03:37:14.431Z,513.00
2023-04-09T03:38:14.431Z,512.00
2023-04-09T03:39:14.451Z,515.00
2023-04-09T03:40:14.505Z,515.00
2023-04-09T03:41:14.609Z,511.00
2023-04-09T03:42:14.671Z,515.00
2023-04-09T03:43:14.723Z,518.00
2023-04-09T03:44:14.728Z,515.00
2023-04-09T03:45:14.796Z,518.00
2023-04-09T03:46:14.826Z,515.00
2023-04-09T03:47:14.851Z,512.00
2023-04-09T03:48:14.876Z,518.00
2023-04-09T03:49:14.885Z,515.00
2023-04-09T03:50:14.946Z,511.00
2023-04-09T03:51:14.933Z,517.00
2023-04-09T03:52:15.000Z,513.00
2023-04-09T03:53:15.047Z,514.00
2023-04-09T03:54:15.109Z,514.00
2023-04-09T03:55:15.164Z,515.00
2023-04-09T03:56:15.178Z,512.00
2023-04-09T03:57:15.243Z,514.00
2023-04-09T03:58:15.277Z,512.00
2023-04-09T03:59:15.295Z,516.00
2023-04-09T04:00:15.304Z,514.00
2023-04-09T04:01:15.406Z,511.00
2023-04-09T04:02:15.459Z,517.00
2023-04-09T04:03:15.653Z,521.00
2023-04-09T04:04:15.593Z,512.00
2023-04-09T04:05:15.598Z,518.00
2023-04-09T04:06:15.604Z,514.00
2023-04-09T04:07:15.643Z,517.00
2023-04-09T04:08:15.721Z,516.00
2023-04-09T04:09:15.773Z,521.00
2023-04-09T04:10:15.834Z,514.00
2023-04-09T04:11:15.842Z,518.00
2023-04-09T04:12:15.952Z,519.00
2023-04-09T04:13:16.026Z,516.00
2023-04-09T04:14:16.018Z,516.00
2023-04-09T04:15:16.072Z,514.00
2023-04-09T04:16:16.132Z,515.00
2023-04-09T04:17:16.096Z,515.00
2023-04-09T04:18:16.202Z,515.00
2023-04-09T04:19:16.239Z,514.00
2023-04-09T04:20:16.308Z,514.00
2023-04-09T04:21:16.342Z,514.00
2023-04-09T04:22:16.364Z,518.00
2023-04-09T04:23:16.445Z,514.00
2023-04-09T04:24:16.488Z,519.00
2023-04-09T04:25:16.560Z,513.00
2023-04-09T04:26:16.568Z,514.00
2023-04-09T04:27:16.595Z,518.00
2023-04-09T04:28:16.669Z,517.00
2023-04-09T04:29:16.695Z,514.00
2023-04-09T04:30:16.725Z,513.00
2023-04-09T04:31:16.814Z,517.00
2023-04-09T04:32:16.809Z,512.00
2023-04-09T04:33:16.846Z,517.00
2023-04-09T04:34:16.917Z,517.00
2023-04-09T04:35:16.978Z,515.00
2023-04-09T04:36:17.026Z,514.00
2023-04-09T04:37:16.972Z,517.00
2023-04-09T04:38:16.998Z,513.00
2023-04-09T04:39:17.052Z,513.00
2023-04-09T04:40:17.094Z,518.00
2023-04-09T04:41:17.169Z,520.00
2023-04-09T04:42:17.198Z,512.00
2023-04-09T04:43:17.225Z,516.00
2023-04-09T04:44:17.283Z,516.00
2023-04-09T04:45:17.309Z,515.00
2023-04-09T04:46:17.446Z,515.00
2023-04-09T04:47:17.421Z,517.00
2023-04-09T04:48:17.417Z,513.00
2023-04-09T04:49:17.462Z,517.00
2023-04-09T04:50:17.485Z,515.00
2023-04-09T04:51:17.552Z,513.00
2023-04-09T04:52:17.924Z,510.00
2023-04-09T04:53:17.577Z,513.00
2023-04-09T04:54:17.629Z,514.00
2023-04-09T04:55:17.673Z,519.00
2023-04-09T04:56:17.640Z,512.00
2023-04-09T04:57:17.726Z,515.00
2023-04-09T04:58:17.735Z,517.00
2023-04-09T04:59:17.812Z,516.00
2023-04-09T05:00:17.853Z,518.00
2023-04-09T05:01:17.903Z,516.00
2023-04-09T05:02:17.972Z,515.00
2023-04-09T05:03:18.141Z,512.00
2023-04-09T05:04:17.952Z,518.00
2023-04-09T05:05:17.990Z,512.00
2023-04-09T05:06:18.047Z,512.00
2023-04-09T05:07:18.166Z,514.00
2023-04-09T05:08:18.102Z,514.00
2023-04-09T05:09:19.087Z,516.00
2023-04-09T05:10:18.230Z,510.00
2023-04-09T05:11:18.300Z,512.00
2023-04-09T05:12:18.350Z,515.00
2023-04-09T05:13:18.414Z,520.00
2023-04-09T05:14:18.476Z,512.00
2023-04-09T05:15:18.479Z,520.00
2023-04-09T05:16:18.694Z,517.00
2023-04-09T05:17:18.613Z,519.00
2023-04-09T05:18:18.643Z,519.00
2023-04-09T05:19:18.693Z,515.00
2023-04-09T05:20:18.766Z,513.00
2023-04-09T05:21:18.811Z,516.00
2023-04-09T05:22:18.871Z,514.00
2023-04-09T05:23:18.892Z,513.00
2023-04-09T05:24:18.996Z,521.00
2023-04-09T05:26:16.805Z,500.00
2023-04-09T05:27:16.810Z,500.00
2023-04-09T05:28:16.849Z,500.00
2023-04-09T05:29:16.779Z,500.00
2023-04-09T05:30:16.780Z,500.00
2023-04-09T05:31:16.901Z,502.00
2023-04-09T05:32:16.885Z,500.00
2023-04-09T05:33:16.752Z,502.00
2023-04-09T05:34:16.749Z,503.00
2023-04-09T05:35:16.756Z,500.00
2023-04-09T05:36:16.764Z,500.00
2023-04-09T05:37:16.725Z,508.00
2023-04-09T05:38:16.740Z,506.00
2023-04-09T05:39:16.756Z,505.00
2023-04-09T05:40:16.754Z,505.00
2023-04-09T05:41:16.696Z,508.00
2023-04-09T05:42:16.710Z,507.00
2023-04-09T05:43:16.715Z,504.00
2023-04-09T05:44:16.733Z,507.00
2023-04-09T05:45:16.714Z,504.00
2023-04-09T05:46:16.701Z,504.00
2023-04-09T05:47:16.679Z,504.00
2023-04-09T05:48:16.639Z,506.00
2023-04-09T05:49:16.655Z,504.00
2023-04-09T05:50:16.656Z,507.00
2023-04-09T05:51:16.658Z,503.00
2023-04-09T05:52:16.640Z,505.00
2023-04-09T05:53:16.637Z,500.00
2023-04-09T05:54:16.646Z,510.00
2023-04-09T05:55:16.585Z,510.00
2023-04-09T05:56:16.601Z,509.00
2023-04-09T05:57:16.671Z,508.00
2023-04-09T05:58:16.721Z,510.00
2023-04-09T05:59:16.781Z,505.00
2023-04-09T06:00:16.793Z,511.00
2023-04-09T06:01:16.843Z,512.00
2023-04-09T06:02:17.005Z,509.00
2023-04-09T06:03:17.128Z,509.00
2023-04-09T06:04:17.404Z,507.00
2023-04-09T06:05:17.067Z,507.00
2023-04-09T06:06:17.081Z,509.00
2023-04-09T06:07:17.147Z,509.00
2023-04-09T06:08:17.207Z,506.00
2023-04-09T06:09:17.258Z,510.00
2023-04-09T06:10:17.270Z,508.00
2023-04-09T06:11:17.326Z,506.00
2023-04-09T06:12:17.376Z,509.00
2023-04-09T06:13:17.426Z,507.00
2023-04-09T06:14:17.506Z,506.00
2023-04-09T06:15:17.555Z,506.00
2023-04-09T06:16:17.624Z,505.00
2023-04-09T06:17:17.618Z,503.00
2023-04-09T06:18:17.672Z,509.00
2023-04-09T06:19:17.851Z,504.00
2023-04-09T06:20:17.767Z,511.00
2023-04-09T06:21:17.809Z,507.00
2023-04-09T06:22:17.855Z,510.00
2023-04-09T06:23:17.904Z,506.00
2023-04-09T06:24:17.979Z,503.00
2023-04-09T06:25:18.027Z,507.00
2023-04-09T06:26:18.089Z,505.00
2023-04-09T06:27:18.102Z,506.00
2023-04-09T06:28:18.201Z,508.00
2023-04-09T06:29:18.211Z,502.00
2023-04-09T06:30:18.250Z,506.00
2023-04-09T06:31:18.402Z,508.00
2023-04-09T06:32:18.373Z,506.00
2023-04-09T06:33:18.431Z,513.00
2023-04-09T06:34:18.450Z,505.00
2023-04-09T06:35:18.498Z,510.00
2023-04-09T06:36:18.566Z,507.00
2023-04-09T06:37:18.620Z,506.00
2023-04-09T06:38:18.687Z,509.00
2023-04-09T06:39:18.718Z,508.00
2023-04-09T06:40:20.674Z,506.00
2023-04-09T06:41:18.737Z,514.00
2023-04-09T06:42:18.758Z,513.00
2023-04-09T06:43:18.763Z,510.00
2023-04-09T06:44:18.711Z,511.00
2023-04-09T06:45:18.738Z,510.00
2023-04-09T06:46:18.882Z,506.00
2023-04-09T06:47:18.679Z,508.00
2023-04-09T06:48:18.702Z,505.00
2023-04-09T06:49:18.697Z,507.00
2023-04-09T06:50:18.663Z,509.00
2023-04-09T06:51:18.681Z,505.00
2023-04-09T06:52:18.684Z,506.00
2023-04-09T06:53:18.644Z,510.00
2023-04-09T06:54:18.618Z,509.00
2023-04-09T06:55:18.639Z,506.00
2023-04-09T06:56:18.672Z,504.00
2023-04-09T06:57:18.645Z,506.00
2023-04-09T06:58:18.631Z,503.00
2023-04-09T06:59:18.676Z,506.00
2023-04-09T07:00:18.632Z,505.00
2023-04-09T07:01:18.642Z,506.00
2023-04-09T07:02:18.685Z,510.00
2023-04-09T07:03:18.686Z,506.00
2023-04-09T07:04:18.762Z,508.00
2023-04-09T07:05:18.559Z,510.00
2023-04-09T07:06:18.594Z,507.00
2023-04-09T07:07:18.695Z,504.00
2023-04-09T07:08:18.576Z,510.00
2023-04-09T07:09:18.534Z,508.00
2023-04-09T07:10:18.533Z,509.00
2023-04-09T07:11:18.536Z,504.00
2023-04-09T07:12:18.554Z,505.00
2023-04-09T07:13:18.514Z,506.00
2023-04-09T07:14:18.471Z,506.00
2023-04-09T07:15:18.528Z,511.00
2023-04-09T07:16:18.559Z,502.00
2023-04-09T07:17:18.587Z,508.00
2023-04-09T07:18:18.650Z,505.00
2023-04-09T07:19:18.692Z,511.00
2023-04-09T07:20:18.761Z,507.00
2023-04-09T07:21:18.781Z,506.00
2023-04-09T07:22:18.823Z,505.00
2023-04-09T07:23:18.883Z,505.00
2023-04-09T07:24:18.920Z,509.00
2023-04-09T07:25:18.937Z,504.00
2023-04-09T07:26:19.008Z,506.00
2023-04-09T07:27:19.060Z,511.00
2023-04-09T07:28:19.088Z,507.00
2023-04-09T07:29:19.134Z,507.00
2023-04-09T07:30:19.181Z,507.00
2023-04-09T07:31:19.357Z,511.00
2023-04-09T07:32:19.630Z,510.00
2023-04-09T07:33:19.290Z,508.00
2023-04-09T07:34:19.394Z,504.00
2023-04-09T07:35:19.439Z,505.00
2023-04-09T07:36:19.470Z,507.00
2023-04-09T07:37:19.498Z,508.00
2023-04-09T07:38:19.557Z,502.00
2023-04-09T07:39:19.564Z,502.00
2023-04-09T07:40:19.629Z,508.00
2023-04-09T07:41:19.646Z,505.00
2023-04-09T07:42:19.685Z,506.00
2023-04-09T07:43:21.444Z,506.00
2023-04-09T07:44:19.795Z,507.00
2023-04-09T07:45:19.770Z,510.00
2023-04-09T07:46:19.884Z,511.00
2023-04-09T07:47:19.758Z,504.00
2023-04-09T07:48:19.714Z,503.00
2023-04-09T07:49:19.679Z,505.00
2023-04-09T07:50:19.719Z,505.00
2023-04-09T07:51:19.681Z,506.00
2023-04-09T07:52:19.700Z,506.00
2023-04-09T07:53:19.658Z,506.00
2023-04-09T07:54:19.637Z,506.00
2023-04-09T07:55:19.660Z,507.00
2023-04-09T07:56:19.626Z,505.00
2023-04-09T07:57:19.695Z,507.00
2023-04-09T07:58:19.639Z,506.00
2023-04-09T07:59:19.603Z,504.00
2023-04-09T08:00:19.660Z,506.00
2023-04-09T08:01:19.584Z,505.00
2023-04-09T08:02:19.662Z,507.00
2023-04-09T08:03:20.213Z,509.00
2023-04-09T08:04:20.056Z,504.00
2023-04-09T08:05:19.942Z,505.00
2023-04-09T08:06:19.594Z,511.00
2023-04-09T08:07:19.601Z,504.00
2023-04-09T08:08:19.602Z,509.00
2023-04-09T08:09:19.528Z,506.00
2023-04-09T08:10:19.583Z,506.00
2023-04-09T08:11:19.554Z,506.00
2023-04-09T08:12:19.586Z,504.00
2023-04-09T08:13:19.527Z,507.00
2023-04-09T08:14:19.541Z,504.00
2023-04-09T08:15:19.593Z,508.00
2023-04-09T08:16:19.583Z,507.00
2023-04-09T08:17:19.499Z,504.00
2023-04-09T08:18:19.498Z,504.00
2023-04-09T08:19:19.488Z,505.00
2023-04-09T08:20:19.484Z,507.00
2023-04-09T08:21:19.504Z,509.00
2023-04-09T08:22:19.495Z,510.00
2023-04-09T08:23:19.448Z,509.00
2023-04-09T08:24:19.475Z,506.00
2023-04-09T08:25:19.458Z,508.00
2023-04-09T08:26:19.414Z,506.00
2023-04-09T08:27:19.429Z,509.00
2023-04-09T08:28:19.438Z,505.00
2023-04-09T08:29:19.397Z,506.00
2023-04-09T08:30:19.442Z,506.00
2023-04-09T08:31:19.419Z,505.00
2023-04-09T08:32:19.466Z,506.00
2023-04-09T08:33:19.360Z,504.00
2023-04-09T08:34:19.367Z,506.00
2023-04-09T08:35:19.378Z,504.00
2023-04-09T08:36:19.379Z,503.00
2023-04-09T08:37:19.350Z,506.00
2023-04-09T08:38:19.353Z,505.00
2023-04-09T08:39:19.354Z,508.00
2023-04-09T08:40:19.306Z,511.00
2023-04-09T08:41:19.306Z,508.00
2023-04-09T08:42:19.271Z,510.00
2023-04-09T08:43:19.337Z,505.00
2023-04-09T08:44:19.444Z,509.00
2023-04-09T08:45:19.353Z,508.00
2023-04-09T08:46:19.411Z,507.00
2023-04-09T08:47:19.407Z,509.00
2023-04-09T08:48:19.537Z,506.00
2023-04-09T08:49:19.484Z,506.00
2023-04-09T08:50:19.484Z,507.00
2023-04-09T08:51:19.495Z,507.00
2023-04-09T08:52:19.486Z,503.00
2023-04-09T08:53:19.510Z,508.00
2023-04-09T08:54:19.554Z,510.00
2023-04-09T08:55:19.564Z,511.00
2023-04-09T08:56:19.562Z,507.00
2023-04-09T08:57:19.573Z,508.00
2023-04-09T08:58:19.607Z,510.00
2023-04-09T08:59:19.596Z,509.00
2023-04-09T09:00:19.611Z,511.00
2023-04-09T09:01:19.737Z,510.00
2023-04-09T09:02:19.786Z,510.00
2023-04-09T09:03:19.824Z,507.00
2023-04-09T09:04:19.777Z,504.00
2023-04-09T09:05:19.713Z,509.00
2023-04-09T09:06:19.731Z,508.00
2023-04-09T09:07:20.102Z,510.00
2023-04-09T09:08:19.810Z,505.00
2023-04-09T09:09:19.802Z,505.00
2023-04-09T09:10:19.838Z,505.00
2023-04-09T09:11:19.822Z,504.00
2023-04-09T09:12:19.878Z,505.00
2023-04-09T09:13:19.882Z,508.00
2023-04-09T09:14:19.867Z,508.00
2023-04-09T09:15:19.956Z,504.00
2023-04-09T09:16:19.946Z,508.00
2023-04-09T09:17:19.973Z,507.00
2023-04-09T09:18:19.931Z,507.00
2023-04-09T09:19:20.024Z,505.00
2023-04-09T09:20:20.009Z,508.00
2023-04-09T09:21:19.940Z,506.00
2023-04-09T09:22:20.000Z,506.00
2023-04-09T09:23:20.015Z,507.00
2023-04-09T09:24:20.019Z,505.00
2023-04-09T09:25:20.049Z,506.00
2023-04-09T09:26:20.061Z,507.00
2023-04-09T09:27:20.083Z,506.00
2023-04-09T09:28:20.048Z,509.00
2023-04-09T09:29:20.111Z,508.00
2023-04-09T09:30:20.096Z,507.00
2023-04-09T09:31:20.128Z,509.00
2023-04-09T09:32:20.137Z,509.00
2023-04-09T09:33:20.126Z,507.00
2023-04-09T09:34:20.138Z,507.00
2023-04-09T09:35:20.128Z,507.00
2023-04-09T09:36:20.098Z,507.00
2023-04-09T09:37:20.107Z,508.00
2023-04-09T09:38:20.131Z,507.00
2023-04-09T09:39:20.157Z,505.00
2023-04-09T09:40:20.180Z,505.00
2023-04-09T09:41:20.189Z,507.00
2023-04-09T09:42:20.177Z,504.00
2023-04-09T09:43:20.276Z,508.00
2023-04-09T09:44:20.249Z,506.00
2023-04-09T09:45:20.196Z,506.00
2023-04-09T09:46:20.198Z,509.00
2023-04-09T09:47:20.220Z,509.00
2023-04-09T09:48:20.200Z,511.00
2023-04-09T09:49:20.212Z,507.00
2023-04-09T09:50:20.192Z,510.00
2023-04-09T09:51:20.228Z,510.00
2023-04-09T09:52:20.257Z,507.00
2023-04-09T09:53:20.223Z,509.00
2023-04-09T09:54:20.251Z,509.00
2023-04-09T09:55:20.262Z,511.00
2023-04-09T09:56:20.369Z,506.00
2023-04-09T09:57:20.348Z,508.00
2023-04-09T09:58:20.376Z,508.00
2023-04-09T09:59:20.626Z,508.00
2023-04-09T10:00:21.518Z,511.00
2023-04-09T10:01:20.384Z,512.00
2023-04-09T10:02:20.390Z,510.00
2023-04-09T10:03:20.384Z,507.00
2023-04-09T10:04:20.352Z,506.00
2023-04-09T10:05:20.320Z,511.00
2023-04-09T10:06:20.250Z,510.00
2023-04-09T10:07:20.271Z,509.00
2023-04-09T10:08:20.245Z,509.00
2023-04-09T10:09:20.267Z,507.00
2023-04-09T10:10:20.272Z,506.00
2023-04-09T10:11:20.298Z,509.00
2023-04-09T10:12:20.248Z,510.00
2023-04-09T10:13:20.247Z,506.00
2023-04-09T10:14:20.280Z,507.00
2023-04-09T10:15:20.192Z,506.00
2023-04-09T10:16:20.226Z,509.00
2023-04-09T10:17:20.266Z,510.00
2023-04-09T10:18:20.207Z,509.00
2023-04-09T10:19:20.190Z,510.00
2023-04-09T10:20:20.190Z,509.00
2023-04-09T10:21:20.164Z,511.00
2023-04-09T10:22:20.278Z,508.00
2023-04-09T10:23:20.154Z,512.00
2023-04-09T10:24:20.177Z,509.00
2023-04-09T10:25:20.186Z,509.00
2023-04-09T10:26:20.136Z,510.00
2023-04-09T10:27:20.156Z,512.00
2023-04-09T10:28:20.170Z,507.00
2023-04-09T10:29:20.179Z,508.00
2023-04-09T10:30:20.117Z,511.00
2023-04-09T10:31:20.150Z,511.00
2023-04-09T10:32:20.183Z,511.00
2023-04-09T10:33:20.109Z,515.00
2023-04-09T10:34:20.102Z,512.00
2023-04-09T10:35:20.120Z,512.00
2023-04-09T10:36:20.143Z,512.00
2023-04-09T10:37:20.074Z,509.00
2023-04-09T10:38:20.049Z,514.00
2023-04-09T10:39:20.078Z,510.00
2023-04-09T10:40:20.098Z,513.00
2023-04-09T10:41:20.057Z,512.00
2023-04-09T10:42:20.041Z,515.00
2023-04-09T10:43:20.042Z,513.00
2023-04-09T10:44:20.012Z,516.00
2023-04-09T10:45:21.949Z,515.00
2023-04-09T10:46:20.121Z,520.00
2023-04-09T10:47:20.014Z,515.00
2023-04-09T10:48:20.106Z,517.00
2023-04-09T10:49:20.150Z,512.00
2023-04-09T10:50:20.228Z,514.00
2023-04-09T10:51:20.259Z,515.00
2023-04-09T10:52:20.658Z,511.00
2023-04-09T10:53:20.392Z,509.00
2023-04-09T10:54:20.379Z,511.00
2023-04-09T10:55:20.451Z,511.00
2023-04-09T10:56:20.492Z,509.00
2023-04-09T10:57:20.575Z,512.00
2023-04-09T10:58:20.580Z,512.00
2023-04-09T10:59:20.624Z,511.00
2023-04-09T11:00:20.708Z,509.00
2023-04-09T11:01:20.709Z,508.00
2023-04-09T11:02:20.895Z,512.00
2023-04-09T11:03:20.929Z,515.00
2023-04-09T11:04:20.871Z,509.00
2023-04-09T11:05:20.929Z,510.00
2023-04-09T11:06:20.980Z,512.00
2023-04-09T11:07:21.062Z,511.00
2023-04-09T11:08:21.093Z,512.00
2023-04-09T11:09:21.148Z,510.00
2023-04-09T11:10:21.214Z,511.00
2023-04-09T11:11:21.298Z,513.00
2023-04-09T11:12:21.393Z,516.00
2023-04-09T11:13:21.415Z,513.00
2023-04-09T11:14:21.457Z,513.00
2023-04-09T11:15:21.516Z,512.00
2023-04-09T11:16:22.996Z,512.00
2023-04-09T11:17:21.617Z,512.00
2023-04-09T11:18:21.536Z,512.00
2023-04-09T11:19:21.530Z,513.00
2023-04-09T11:20:21.555Z,512.00
2023-04-09T11:21:21.511Z,514.00
2023-04-09T11:22:21.479Z,512.00
2023-04-09T11:23:21.487Z,514.00
2023-04-09T11:24:21.481Z,514.00
2023-04-09T11:25:21.479Z,513.00
2023-04-09T11:26:21.481Z,515.00
2023-04-09T11:27:21.491Z,514.00
2023-04-09T11:28:21.471Z,513.00
2023-04-09T11:29:21.431Z,513.00
2023-04-09T11:30:21.455Z,514.00
2023-04-09T11:31:21.441Z,515.00
2023-04-09T11:32:21.417Z,510.00
2023-04-09T11:33:21.475Z,513.00
2023-04-09T11:34:21.450Z,513.00
2023-04-09T11:35:21.458Z,514.00
2023-04-09T11:36:21.428Z,514.00
2023-04-09T11:37:21.362Z,512.00
2023-04-09T11:38:21.382Z,515.00
2023-04-09T11:39:21.373Z,513.00
2023-04-09T11:40:21.364Z,514.00
2023-04-09T11:41:21.373Z,514.00
2023-04-09T11:42:21.305Z,514.00
2023-04-09T11:43:21.388Z,514.00
2023-04-09T11:44:21.336Z,514.00
2023-04-09T11:45:21.345Z,516.00
2023-04-09T11:46:21.366Z,514.00
2023-04-09T11:47:21.380Z,514.00
2023-04-09T11:48:21.372Z,517.00
2023-04-09T11:49:21.341Z,518.00
2023-04-09T11:50:21.341Z,515.00
2023-04-09T11:51:21.378Z,516.00
2023-04-09T11:52:21.502Z,516.00
2023-04-09T11:53:21.517Z,517.00
2023-04-09T11:54:21.486Z,516.00
2023-04-09T11:55:21.510Z,513.00
2023-04-09T11:56:21.509Z,514.00
2023-04-09T11:57:21.595Z,516.00
2023-04-09T11:58:21.608Z,515.00
2023-04-09T11:59:21.652Z,517.00
2023-04-09T12:00:21.638Z,516.00
2023-04-09T12:01:21.718Z,516.00
2023-04-09T12:02:21.998Z,518.00
2023-04-09T12:03:21.931Z,516.00
2023-04-09T12:04:22.023Z,515.00
2023-04-09T12:05:21.835Z,519.00
2023-04-09T12:06:21.871Z,517.00
2023-04-09T12:07:21.910Z,515.00
2023-04-09T12:08:21.965Z,517.00
2023-04-09T12:09:21.984Z,516.00
2023-04-09T12:10:21.980Z,517.00
2023-04-09T12:11:22.055Z,518.00
2023-04-09T12:12:22.050Z,520.00
2023-04-09T12:13:22.120Z,520.00
2023-04-09T12:14:22.150Z,519.00
2023-04-09T12:15:22.134Z,522.00
2023-04-09T12:16:22.238Z,521.00
2023-04-09T12:17:22.320Z,520.00
2023-04-09T12:18:22.263Z,522.00
2023-04-09T12:19:22.305Z,521.00
2023-04-09T12:20:22.317Z,523.00
2023-04-09T12:21:22.366Z,521.00
2023-04-09T12:22:22.381Z,520.00
2023-04-09T12:23:22.395Z,520.00
2023-04-09T12:24:22.429Z,523.00
2023-04-09T12:25:22.472Z,521.00
2023-04-09T12:26:22.442Z,522.00
2023-04-09T12:27:22.507Z,522.00
2023-04-09T12:28:22.515Z,523.00
2023-04-09T12:29:22.556Z,521.00